logo
Search for airport 
image banner adimage banner adimage banner ad
image banner ad

FAPV - Petrusville

Located in Petrusville, South Africa

ICAO - FAPV, IATA -

Data provided by Airmate  

General information

Coordinates: S30°4'55" E24°40'48"
Elevation is 4005 feet MSL.
 
View others Airports in Northern Cape

Operational data

Special qualification required
Current time UTC:
Current local time:
Weather at : - ( 0 km )
METAR: PATE 181010Z AUTO 11010KT 9SM -SN OVC005 M01/M02 A2989 RMK AO2 P0000 FZRANO
View NOTAMs / SUP AIP / TFR affecting this airport [VIEW]
Communications frequencies: [VIEW]

Runways:

RWY identifierQFULength (ft)Width (ft)SurfaceLDA (ft)
18172°459372SAND
36352°459372SAND
12104°360982SAND
30284°360982SAND

Airport contact information

Address: Petrusville South Africa

Satellite view of FAPV